Alpine, Pennsylvania
Current Conditions -  °F | °C
As of 4:56 AM on Thursday 29 Jan 2015 (Local Time) from KCXY Reporting Station
Clear Clear  
Wind Chill: -22°   Ceiling: Unl
Heat Index: -17°   Visibility: 10mi
Dew Point: -17°   Wind: 5mph
Humidity: 100%   Direction: 280°W
Pressure: 30.32"   Gusts: NA
Location:  40.1328°N, 76.8833°W
Report Text: KCXY 290956Z AUTO 28004KT 10SM CLR M17/M17 A3032 RMK AO2 SLP275 T11671167 $
Loading
Personal Weather Stations






























Interactive Weather Map New forecast layout! Learn more

10-Day Weather Forecast

Advertisements
Track Severe Weather on mobile